sensor_id;sensor_type;location;lat;lon;timestamp;P1;durP1;ratioP1;P2;durP2;ratioP2
1701;SDS011;848;48.354;10.064;2023-04-06T00:01:18;13.23;;;5.35;;
1701;SDS011;848;48.354;10.064;2023-04-06T00:03:45;10.93;;;5.05;;
1701;SDS011;848;48.354;10.064;2023-04-06T00:06:12;8.00;;;4.13;;
1701;SDS011;848;48.354;10.064;2023-04-06T00:08:39;10.23;;;4.72;;
1701;SDS011;848;48.354;10.064;2023-04-06T00:11:08;11.68;;;4.88;;
1701;SDS011;848;48.354;10.064;2023-04-06T00:13:35;9.77;;;4.55;;
1701;SDS011;848;48.354;10.064;2023-04-06T00:16:02;10.43;;;4.40;;
1701;SDS011;848;48.354;10.064;2023-04-06T00:18:30;9.57;;;4.75;;
1701;SDS011;848;48.354;10.064;2023-04-06T00:20:57;11.48;;;4.70;;
1701;SDS011;848;48.354;10.064;2023-04-06T00:23:24;10.90;;;5.60;;
1701;SDS011;848;48.354;10.064;2023-04-06T00:25:51;9.73;;;4.30;;
1701;SDS011;848;48.354;10.064;2023-04-06T00:28:20;9.98;;;4.38;;
1701;SDS011;848;48.354;10.064;2023-04-06T00:30:50;9.45;;;4.97;;
1701;SDS011;848;48.354;10.064;2023-04-06T00:33:20;9.27;;;4.53;;
1701;SDS011;848;48.354;10.064;2023-04-06T00:35:47;8.43;;;4.45;;
1701;SDS011;848;48.354;10.064;2023-04-06T00:38:15;8.98;;;4.95;;
1701;SDS011;848;48.354;10.064;2023-04-06T00:40:44;8.60;;;4.40;;
1701;SDS011;848;48.354;10.064;2023-04-06T00:43:11;9.38;;;5.10;;
1701;SDS011;848;48.354;10.064;2023-04-06T00:45:41;11.80;;;5.65;;
1701;SDS011;848;48.354;10.064;2023-04-06T00:48:08;7.60;;;3.70;;
1701;SDS011;848;48.354;10.064;2023-04-06T00:50:35;9.05;;;5.32;;
1701;SDS011;848;48.354;10.064;2023-04-06T00:53:02;11.57;;;5.40;;
1701;SDS011;848;48.354;10.064;2023-04-06T00:55:29;13.30;;;4.93;;
1701;SDS011;848;48.354;10.064;2023-04-06T00:57:57;8.32;;;4.35;;
1701;SDS011;848;48.354;10.064;2023-04-06T01:00:25;8.52;;;4.85;;
1701;SDS011;848;48.354;10.064;2023-04-06T01:02:54;11.48;;;4.70;;
1701;SDS011;848;48.354;10.064;2023-04-06T01:05:21;11.40;;;5.10;;
1701;SDS011;848;48.354;10.064;2023-04-06T01:07:48;13.88;;;5.20;;
1701;SDS011;848;48.354;10.064;2023-04-06T01:10:22;9.10;;;4.95;;
1701;SDS011;848;48.354;10.064;2023-04-06T01:12:50;9.60;;;4.43;;
1701;SDS011;848;48.354;10.064;2023-04-06T01:15:19;9.43;;;4.47;;
1701;SDS011;848;48.354;10.064;2023-04-06T01:17:47;11.30;;;4.13;;
1701;SDS011;848;48.354;10.064;2023-04-06T01:20:15;9.98;;;4.60;;
1701;SDS011;848;48.354;10.064;2023-04-06T01:22:43;8.32;;;3.60;;
1701;SDS011;848;48.354;10.064;2023-04-06T01:25:11;9.07;;;4.97;;
1701;SDS011;848;48.354;10.064;2023-04-06T01:27:38;10.65;;;5.60;;
1701;SDS011;848;48.354;10.064;2023-04-06T01:30:05;9.55;;;5.22;;
1701;SDS011;848;48.354;10.064;2023-04-06T01:32:33;8.82;;;4.60;;
1701;SDS011;848;48.354;10.064;2023-04-06T01:35:00;12.55;;;5.30;;
1701;SDS011;848;48.354;10.064;2023-04-06T01:37:27;10.45;;;4.53;;
1701;SDS011;848;48.354;10.064;2023-04-06T01:39:58;11.32;;;4.97;;
1701;SDS011;848;48.354;10.064;2023-04-06T01:42:26;8.85;;;5.07;;
1701;SDS011;848;48.354;10.064;2023-04-06T01:44:53;9.98;;;5.32;;
1701;SDS011;848;48.354;10.064;2023-04-06T01:47:20;15.98;;;6.25;;
1701;SDS011;848;48.354;10.064;2023-04-06T01:49:47;12.68;;;5.88;;
1701;SDS011;848;48.354;10.064;2023-04-06T01:52:14;9.40;;;4.90;;
1701;SDS011;848;48.354;10.064;2023-04-06T01:54:41;10.23;;;5.80;;
1701;SDS011;848;48.354;10.064;2023-04-06T01:57:10;9.73;;;5.10;;
1701;SDS011;848;48.354;10.064;2023-04-06T01:59:37;12.05;;;5.13;;
1701;SDS011;848;48.354;10.064;2023-04-06T02:02:04;12.32;;;6.55;;
1701;SDS011;848;48.354;10.064;2023-04-06T02:04:31;14.07;;;5.50;;
1701;SDS011;848;48.354;10.064;2023-04-06T02:06:58;9.93;;;6.25;;
1701;SDS011;848;48.354;10.064;2023-04-06T02:09:25;13.85;;;6.05;;
1701;SDS011;848;48.354;10.064;2023-04-06T02:11:52;10.82;;;5.57;;
1701;SDS011;848;48.354;10.064;2023-04-06T02:14:20;12.02;;;6.28;;
1701;SDS011;848;48.354;10.064;2023-04-06T02:16:47;11.30;;;6.30;;
1701;SDS011;848;48.354;10.064;2023-04-06T02:19:14;11.88;;;6.20;;
1701;SDS011;848;48.354;10.064;2023-04-06T02:21:41;9.27;;;5.38;;
1701;SDS011;848;48.354;10.064;2023-04-06T02:24:08;16.33;;;6.00;;
1701;SDS011;848;48.354;10.064;2023-04-06T02:26:35;10.95;;;6.35;;
1701;SDS011;848;48.354;10.064;2023-04-06T02:29:02;12.38;;;5.20;;
1701;SDS011;848;48.354;10.064;2023-04-06T02:31:30;12.73;;;5.90;;
1701;SDS011;848;48.354;10.064;2023-04-06T02:33:57;12.88;;;5.72;;
1701;SDS011;848;48.354;10.064;2023-04-06T02:36:25;10.95;;;5.22;;
1701;SDS011;848;48.354;10.064;2023-04-06T02:38:52;11.43;;;6.18;;
1701;SDS011;848;48.354;10.064;2023-04-06T02:41:19;11.07;;;5.55;;
1701;SDS011;848;48.354;10.064;2023-04-06T02:43:46;11.05;;;5.63;;
1701;SDS011;848;48.354;10.064;2023-04-06T02:46:13;9.40;;;5.45;;
1701;SDS011;848;48.354;10.064;2023-04-06T02:48:41;10.93;;;5.20;;
1701;SDS011;848;48.354;10.064;2023-04-06T02:51:08;9.55;;;5.20;;
1701;SDS011;848;48.354;10.064;2023-04-06T02:53:35;12.65;;;6.70;;
1701;SDS011;848;48.354;10.064;2023-04-06T02:56:03;14.52;;;4.95;;
1701;SDS011;848;48.354;10.064;2023-04-06T02:58:30;10.65;;;5.25;;
1701;SDS011;848;48.354;10.064;2023-04-06T03:00:57;12.55;;;6.43;;
1701;SDS011;848;48.354;10.064;2023-04-06T03:03:24;11.88;;;6.22;;
1701;SDS011;848;48.354;10.064;2023-04-06T03:05:53;11.75;;;6.35;;
1701;SDS011;848;48.354;10.064;2023-04-06T03:08:21;11.32;;;6.28;;
1701;SDS011;848;48.354;10.064;2023-04-06T03:10:48;13.40;;;6.60;;
1701;SDS011;848;48.354;10.064;2023-04-06T03:13:15;11.88;;;6.20;;
1701;SDS011;848;48.354;10.064;2023-04-06T03:15:42;12.30;;;6.38;;
1701;SDS011;848;48.354;10.064;2023-04-06T03:18:09;12.85;;;6.30;;
1701;SDS011;848;48.354;10.064;2023-04-06T03:20:36;12.18;;;6.00;;
1701;SDS011;848;48.354;10.064;2023-04-06T03:23:06;12.20;;;6.43;;
1701;SDS011;848;48.354;10.064;2023-04-06T03:25:34;12.27;;;5.55;;
1701;SDS011;848;48.354;10.064;2023-04-06T03:28:01;10.10;;;5.57;;
1701;SDS011;848;48.354;10.064;2023-04-06T03:30:28;12.70;;;6.90;;
1701;SDS011;848;48.354;10.064;2023-04-06T03:32:58;11.38;;;6.13;;
1701;SDS011;848;48.354;10.064;2023-04-06T03:35:25;10.05;;;5.13;;
1701;SDS011;848;48.354;10.064;2023-04-06T03:37:52;13.38;;;6.78;;
1701;SDS011;848;48.354;10.064;2023-04-06T03:40:21;24.30;;;6.20;;
1701;SDS011;848;48.354;10.064;2023-04-06T03:42:48;14.07;;;6.57;;
1701;SDS011;848;48.354;10.064;2023-04-06T03:45:15;12.48;;;6.65;;
1701;SDS011;848;48.354;10.064;2023-04-06T03:47:43;13.50;;;6.63;;
1701;SDS011;848;48.354;10.064;2023-04-06T03:50:10;14.10;;;6.88;;
1701;SDS011;848;48.354;10.064;2023-04-06T03:52:37;13.52;;;6.50;;
1701;SDS011;848;48.354;10.064;2023-04-06T03:55:07;12.18;;;6.00;;
1701;SDS011;848;48.354;10.064;2023-04-06T03:57:36;12.70;;;5.95;;
1701;SDS011;848;48.354;10.064;2023-04-06T04:00:05;14.32;;;6.95;;
1701;SDS011;848;48.354;10.064;2023-04-06T04:02:34;12.93;;;5.97;;
1701;SDS011;848;48.354;10.064;2023-04-06T04:05:01;15.82;;;6.70;;
1701;SDS011;848;48.354;10.064;2023-04-06T04:07:28;14.85;;;6.03;;
1701;SDS011;848;48.354;10.064;2023-04-06T04:09:55;15.38;;;7.20;;
1701;SDS011;848;48.354;10.064;2023-04-06T04:12:22;12.13;;;6.00;;
1701;SDS011;848;48.354;10.064;2023-04-06T04:14:51;12.70;;;6.47;;
1701;SDS011;848;48.354;10.064;2023-04-06T04:17:18;11.27;;;5.95;;
1701;SDS011;848;48.354;10.064;2023-04-06T04:19:45;11.75;;;6.40;;
1701;SDS011;848;48.354;10.064;2023-04-06T04:22:12;13.25;;;6.25;;
1701;SDS011;848;48.354;10.064;2023-04-06T04:24:39;12.18;;;6.25;;
1701;SDS011;848;48.354;10.064;2023-04-06T04:27:06;14.65;;;6.82;;
1701;SDS011;848;48.354;10.064;2023-04-06T04:29:33;10.63;;;5.07;;
1701;SDS011;848;48.354;10.064;2023-04-06T04:32:01;12.30;;;6.28;;
1701;SDS011;848;48.354;10.064;2023-04-06T04:34:28;10.40;;;5.95;;
1701;SDS011;848;48.354;10.064;2023-04-06T04:36:56;12.48;;;5.95;;
1701;SDS011;848;48.354;10.064;2023-04-06T04:39:23;17.75;;;7.25;;
1701;SDS011;848;48.354;10.064;2023-04-06T04:41:50;11.27;;;6.22;;
1701;SDS011;848;48.354;10.064;2023-04-06T04:44:18;11.98;;;7.22;;
1701;SDS011;848;48.354;10.064;2023-04-06T04:46:45;13.40;;;6.22;;
1701;SDS011;848;48.354;10.064;2023-04-06T04:49:14;12.82;;;6.00;;
1701;SDS011;848;48.354;10.064;2023-04-06T04:51:41;11.77;;;5.97;;
1701;SDS011;848;48.354;10.064;2023-04-06T04:54:08;12.93;;;6.95;;
1701;SDS011;848;48.354;10.064;2023-04-06T04:56:35;11.85;;;6.78;;
1701;SDS011;848;48.354;10.064;2023-04-06T04:59:02;11.55;;;6.05;;
1701;SDS011;848;48.354;10.064;2023-04-06T05:01:29;10.50;;;5.07;;
1701;SDS011;848;48.354;10.064;2023-04-06T05:03:56;17.92;;;5.90;;
1701;SDS011;848;48.354;10.064;2023-04-06T05:06:24;13.27;;;5.80;;
1701;SDS011;848;48.354;10.064;2023-04-06T05:08:51;10.52;;;5.03;;
1701;SDS011;848;48.354;10.064;2023-04-06T05:11:18;12.38;;;6.38;;
1701;SDS011;848;48.354;10.064;2023-04-06T05:13:46;12.93;;;6.22;;
1701;SDS011;848;48.354;10.064;2023-04-06T05:16:13;20.00;;;6.88;;
1701;SDS011;848;48.354;10.064;2023-04-06T05:18:40;11.88;;;6.45;;
1701;SDS011;848;48.354;10.064;2023-04-06T05:21:07;13.50;;;6.43;;
1701;SDS011;848;48.354;10.064;2023-04-06T05:23:39;12.55;;;5.95;;
1701;SDS011;848;48.354;10.064;2023-04-06T05:26:09;12.90;;;6.55;;
1701;SDS011;848;48.354;10.064;2023-04-06T05:28:36;10.68;;;5.70;;
1701;SDS011;848;48.354;10.064;2023-04-06T05:31:03;11.13;;;5.65;;
1701;SDS011;848;48.354;10.064;2023-04-06T05:33:30;12.65;;;6.13;;
1701;SDS011;848;48.354;10.064;2023-04-06T05:35:57;11.52;;;6.55;;
1701;SDS011;848;48.354;10.064;2023-04-06T05:38:28;13.07;;;7.15;;
1701;SDS011;848;48.354;10.064;2023-04-06T05:40:57;14.27;;;7.50;;
1701;SDS011;848;48.354;10.064;2023-04-06T05:43:24;11.18;;;6.90;;
1701;SDS011;848;48.354;10.064;2023-04-06T05:45:51;14.35;;;7.03;;
1701;SDS011;848;48.354;10.064;2023-04-06T05:48:18;14.23;;;6.75;;
1701;SDS011;848;48.354;10.064;2023-04-06T05:50:47;18.17;;;8.07;;
1701;SDS011;848;48.354;10.064;2023-04-06T05:53:15;11.82;;;6.85;;
1701;SDS011;848;48.354;10.064;2023-04-06T05:55:44;16.75;;;8.30;;
1701;SDS011;848;48.354;10.064;2023-04-06T05:58:12;15.95;;;8.20;;
1701;SDS011;848;48.354;10.064;2023-04-06T06:00:40;15.93;;;9.57;;
1701;SDS011;848;48.354;10.064;2023-04-06T06:03:10;12.57;;;7.22;;
1701;SDS011;848;48.354;10.064;2023-04-06T06:05:38;16.17;;;7.63;;
1701;SDS011;848;48.354;10.064;2023-04-06T06:08:05;16.23;;;9.43;;
1701;SDS011;848;48.354;10.064;2023-04-06T06:10:32;15.10;;;8.00;;
1701;SDS011;848;48.354;10.064;2023-04-06T06:12:59;16.60;;;8.10;;
1701;SDS011;848;48.354;10.064;2023-04-06T06:15:28;15.32;;;9.55;;
1701;SDS011;848;48.354;10.064;2023-04-06T06:17:54;23.60;;;8.80;;
1701;SDS011;848;48.354;10.064;2023-04-06T06:20:21;15.57;;;8.57;;
1701;SDS011;848;48.354;10.064;2023-04-06T06:22:48;20.60;;;9.50;;
1701;SDS011;848;48.354;10.064;2023-04-06T06:25:16;17.42;;;8.68;;
1701;SDS011;848;48.354;10.064;2023-04-06T06:27:43;20.15;;;9.95;;
1701;SDS011;848;48.354;10.064;2023-04-06T06:30:10;17.75;;;10.35;;
1701;SDS011;848;48.354;10.064;2023-04-06T06:32:38;21.00;;;10.88;;
1701;SDS011;848;48.354;10.064;2023-04-06T06:35:06;15.95;;;10.20;;
1701;SDS011;848;48.354;10.064;2023-04-06T06:37:33;17.17;;;11.07;;
1701;SDS011;848;48.354;10.064;2023-04-06T06:40:00;16.90;;;11.50;;
1701;SDS011;848;48.354;10.064;2023-04-06T06:42:27;15.55;;;10.18;;
1701;SDS011;848;48.354;10.064;2023-04-06T06:44:55;20.83;;;10.80;;
1701;SDS011;848;48.354;10.064;2023-04-06T06:47:22;19.10;;;11.73;;
1701;SDS011;848;48.354;10.064;2023-04-06T06:49:50;26.98;;;11.60;;
1701;SDS011;848;48.354;10.064;2023-04-06T06:52:17;19.00;;;13.43;;
1701;SDS011;848;48.354;10.064;2023-04-06T06:54:45;18.67;;;13.07;;
1701;SDS011;848;48.354;10.064;2023-04-06T06:57:12;19.50;;;14.35;;
1701;SDS011;848;48.354;10.064;2023-04-06T06:59:39;21.10;;;13.40;;
1701;SDS011;848;48.354;10.064;2023-04-06T07:02:06;22.63;;;14.57;;
1701;SDS011;848;48.354;10.064;2023-04-06T07:04:33;21.08;;;13.85;;
1701;SDS011;848;48.354;10.064;2023-04-06T07:07:01;20.65;;;13.00;;
1701;SDS011;848;48.354;10.064;2023-04-06T07:09:28;21.52;;;13.80;;
1701;SDS011;848;48.354;10.064;2023-04-06T07:11:55;21.98;;;12.90;;
1701;SDS011;848;48.354;10.064;2023-04-06T07:14:25;21.70;;;13.98;;
1701;SDS011;848;48.354;10.064;2023-04-06T07:16:51;18.45;;;13.30;;
1701;SDS011;848;48.354;10.064;2023-04-06T07:19:18;21.35;;;14.13;;
1701;SDS011;848;48.354;10.064;2023-04-06T07:21:45;21.58;;;14.05;;
1701;SDS011;848;48.354;10.064;2023-04-06T07:24:15;20.80;;;13.45;;
1701;SDS011;848;48.354;10.064;2023-04-06T07:26:42;18.08;;;12.32;;
1701;SDS011;848;48.354;10.064;2023-04-06T07:29:09;21.35;;;14.85;;
1701;SDS011;848;48.354;10.064;2023-04-06T07:31:37;19.30;;;12.50;;
1701;SDS011;848;48.354;10.064;2023-04-06T07:34:04;24.65;;;13.25;;
1701;SDS011;848;48.354;10.064;2023-04-06T07:36:31;18.92;;;13.10;;
1701;SDS011;848;48.354;10.064;2023-04-06T07:38:58;23.80;;;13.30;;
1701;SDS011;848;48.354;10.064;2023-04-06T07:41:27;25.17;;;15.23;;
1701;SDS011;848;48.354;10.064;2023-04-06T07:43:54;19.17;;;13.50;;
1701;SDS011;848;48.354;10.064;2023-04-06T07:46:21;20.83;;;14.65;;
1701;SDS011;848;48.354;10.064;2023-04-06T07:48:48;20.85;;;14.73;;
1701;SDS011;848;48.354;10.064;2023-04-06T07:51:15;21.42;;;13.88;;
1701;SDS011;848;48.354;10.064;2023-04-06T07:53:43;20.27;;;12.93;;
1701;SDS011;848;48.354;10.064;2023-04-06T07:56:10;20.55;;;13.43;;
1701;SDS011;848;48.354;10.064;2023-04-06T07:58:39;22.05;;;14.13;;
1701;SDS011;848;48.354;10.064;2023-04-06T08:01:06;22.70;;;14.18;;
1701;SDS011;848;48.354;10.064;2023-04-06T08:03:33;20.20;;;14.32;;
1701;SDS011;848;48.354;10.064;2023-04-06T08:06:03;19.40;;;12.98;;
1701;SDS011;848;48.354;10.064;2023-04-06T08:08:31;23.38;;;13.13;;
1701;SDS011;848;48.354;10.064;2023-04-06T08:10:58;25.73;;;14.98;;
1701;SDS011;848;48.354;10.064;2023-04-06T08:13:27;20.45;;;12.65;;
1701;SDS011;848;48.354;10.064;2023-04-06T08:15:56;20.65;;;12.43;;
1701;SDS011;848;48.354;10.064;2023-04-06T08:18:23;21.63;;;13.32;;
1701;SDS011;848;48.354;10.064;2023-04-06T08:20:54;17.20;;;10.93;;
1701;SDS011;848;48.354;10.064;2023-04-06T08:23:22;17.77;;;11.43;;
1701;SDS011;848;48.354;10.064;2023-04-06T08:25:49;16.75;;;11.68;;
1701;SDS011;848;48.354;10.064;2023-04-06T08:28:19;19.50;;;11.38;;
1701;SDS011;848;48.354;10.064;2023-04-06T08:30:46;19.38;;;12.38;;
1701;SDS011;848;48.354;10.064;2023-04-06T08:33:14;19.90;;;12.48;;
1701;SDS011;848;48.354;10.064;2023-04-06T08:35:43;24.50;;;13.70;;
1701;SDS011;848;48.354;10.064;2023-04-06T08:38:10;21.45;;;11.77;;
1701;SDS011;848;48.354;10.064;2023-04-06T08:40:37;18.75;;;12.40;;
1701;SDS011;848;48.354;10.064;2023-04-06T08:43:05;22.70;;;11.57;;
1701;SDS011;848;48.354;10.064;2023-04-06T08:45:36;17.90;;;12.10;;
1701;SDS011;848;48.354;10.064;2023-04-06T08:48:04;21.55;;;12.70;;
1701;SDS011;848;48.354;10.064;2023-04-06T08:50:33;17.95;;;11.77;;
1701;SDS011;848;48.354;10.064;2023-04-06T08:53:00;18.75;;;11.85;;
1701;SDS011;848;48.354;10.064;2023-04-06T08:55:28;16.50;;;11.10;;
1701;SDS011;848;48.354;10.064;2023-04-06T08:57:55;18.88;;;11.63;;
1701;SDS011;848;48.354;10.064;2023-04-06T09:00:23;19.63;;;11.55;;
1701;SDS011;848;48.354;10.064;2023-04-06T09:02:52;16.45;;;11.05;;
1701;SDS011;848;48.354;10.064;2023-04-06T09:05:21;17.50;;;11.10;;
1701;SDS011;848;48.354;10.064;2023-04-06T09:07:52;22.17;;;11.73;;
1701;SDS011;848;48.354;10.064;2023-04-06T09:10:20;16.85;;;10.35;;
1701;SDS011;848;48.354;10.064;2023-04-06T09:12:48;21.05;;;10.80;;
1701;SDS011;848;48.354;10.064;2023-04-06T09:15:19;21.45;;;12.18;;
1701;SDS011;848;48.354;10.064;2023-04-06T09:17:47;19.42;;;10.82;;
1701;SDS011;848;48.354;10.064;2023-04-06T09:20:14;22.05;;;12.35;;
1701;SDS011;848;48.354;10.064;2023-04-06T09:22:50;18.08;;;11.00;;
1701;SDS011;848;48.354;10.064;2023-04-06T09:25:20;23.20;;;12.07;;
1701;SDS011;848;48.354;10.064;2023-04-06T09:27:49;16.30;;;10.88;;
1701;SDS011;848;48.354;10.064;2023-04-06T09:30:25;26.20;;;13.88;;
1701;SDS011;848;48.354;10.064;2023-04-06T09:32:52;20.70;;;11.70;;
1701;SDS011;848;48.354;10.064;2023-04-06T09:35:20;20.88;;;12.32;;
1701;SDS011;848;48.354;10.064;2023-04-06T09:37:49;21.38;;;12.35;;
1701;SDS011;848;48.354;10.064;2023-04-06T09:40:21;21.55;;;10.15;;
1701;SDS011;848;48.354;10.064;2023-04-06T09:42:49;19.25;;;11.65;;
1701;SDS011;848;48.354;10.064;2023-04-06T09:45:18;18.20;;;9.98;;
1701;SDS011;848;48.354;10.064;2023-04-06T09:47:45;18.58;;;11.55;;
1701;SDS011;848;48.354;10.064;2023-04-06T09:50:13;20.77;;;11.00;;
1701;SDS011;848;48.354;10.064;2023-04-06T09:52:42;21.40;;;11.35;;
1701;SDS011;848;48.354;10.064;2023-04-06T09:55:16;20.67;;;11.40;;
1701;SDS011;848;48.354;10.064;2023-04-06T09:57:52;19.48;;;11.38;;
1701;SDS011;848;48.354;10.064;2023-04-06T10:00:24;21.20;;;11.60;;
1701;SDS011;848;48.354;10.064;2023-04-06T10:02:54;16.35;;;9.40;;
1701;SDS011;848;48.354;10.064;2023-04-06T10:05:27;14.80;;;7.60;;
1701;SDS011;848;48.354;10.064;2023-04-06T10:08:00;16.42;;;8.60;;
1701;SDS011;848;48.354;10.064;2023-04-06T10:10:35;16.55;;;8.85;;
1701;SDS011;848;48.354;10.064;2023-04-06T10:13:05;18.05;;;9.50;;
1701;SDS011;848;48.354;10.064;2023-04-06T10:15:33;18.63;;;9.50;;
1701;SDS011;848;48.354;10.064;2023-04-06T10:18:00;16.58;;;9.57;;
1701;SDS011;848;48.354;10.064;2023-04-06T10:20:32;18.88;;;10.32;;
1701;SDS011;848;48.354;10.064;2023-04-06T10:23:06;18.67;;;10.90;;
1701;SDS011;848;48.354;10.064;2023-04-06T10:25:39;19.40;;;10.38;;
1701;SDS011;848;48.354;10.064;2023-04-06T10:28:08;20.08;;;10.02;;
1701;SDS011;848;48.354;10.064;2023-04-06T10:30:41;19.00;;;9.93;;
1701;SDS011;848;48.354;10.064;2023-04-06T10:33:12;18.23;;;10.43;;
1701;SDS011;848;48.354;10.064;2023-04-06T10:35:42;17.52;;;8.73;;
1701;SDS011;848;48.354;10.064;2023-04-06T10:38:09;15.43;;;7.70;;
1701;SDS011;848;48.354;10.064;2023-04-06T10:40:38;15.55;;;8.23;;
1701;SDS011;848;48.354;10.064;2023-04-06T10:43:09;14.40;;;8.20;;
1701;SDS011;848;48.354;10.064;2023-04-06T10:45:37;15.60;;;8.82;;
1701;SDS011;848;48.354;10.064;2023-04-06T10:48:14;21.70;;;10.27;;
1701;SDS011;848;48.354;10.064;2023-04-06T10:50:42;16.02;;;8.40;;
1701;SDS011;848;48.354;10.064;2023-04-06T10:53:11;18.05;;;8.18;;
1701;SDS011;848;48.354;10.064;2023-04-06T10:55:38;15.63;;;8.68;;
1701;SDS011;848;48.354;10.064;2023-04-06T10:58:06;16.90;;;8.55;;
1701;SDS011;848;48.354;10.064;2023-04-06T11:00:35;13.18;;;7.63;;
1701;SDS011;848;48.354;10.064;2023-04-06T11:03:09;14.82;;;8.48;;
1701;SDS011;848;48.354;10.064;2023-04-06T11:05:36;14.85;;;7.95;;
1701;SDS011;848;48.354;10.064;2023-04-06T11:08:03;14.50;;;7.43;;
1701;SDS011;848;48.354;10.064;2023-04-06T11:10:30;14.15;;;7.80;;
1701;SDS011;848;48.354;10.064;2023-04-06T11:12:57;14.20;;;7.50;;
1701;SDS011;848;48.354;10.064;2023-04-06T11:15:26;15.68;;;7.93;;
1701;SDS011;848;48.354;10.064;2023-04-06T11:18:03;14.60;;;8.65;;
1701;SDS011;848;48.354;10.064;2023-04-06T11:20:31;14.40;;;7.53;;
1701;SDS011;848;48.354;10.064;2023-04-06T11:22:58;14.20;;;8.63;;
1701;SDS011;848;48.354;10.064;2023-04-06T11:25:26;14.82;;;7.60;;
1701;SDS011;848;48.354;10.064;2023-04-06T11:27:55;14.75;;;8.18;;
1701;SDS011;848;48.354;10.064;2023-04-06T11:30:23;13.40;;;7.93;;
1701;SDS011;848;48.354;10.064;2023-04-06T11:32:51;13.77;;;8.23;;
1701;SDS011;848;48.354;10.064;2023-04-06T11:35:22;13.45;;;7.80;;
1701;SDS011;848;48.354;10.064;2023-04-06T11:37:50;13.57;;;7.93;;
1701;SDS011;848;48.354;10.064;2023-04-06T11:40:20;15.77;;;7.57;;
1701;SDS011;848;48.354;10.064;2023-04-06T11:42:51;15.32;;;8.50;;
1701;SDS011;848;48.354;10.064;2023-04-06T11:45:19;10.77;;;6.63;;
1701;SDS011;848;48.354;10.064;2023-04-06T11:47:54;11.82;;;7.10;;
1701;SDS011;848;48.354;10.064;2023-04-06T11:50:24;14.40;;;7.55;;
1701;SDS011;848;48.354;10.064;2023-04-06T11:52:57;13.10;;;6.25;;
1701;SDS011;848;48.354;10.064;2023-04-06T11:55:25;12.77;;;7.82;;
1701;SDS011;848;48.354;10.064;2023-04-06T11:57:53;12.55;;;6.65;;
1701;SDS011;848;48.354;10.064;2023-04-06T12:00:20;13.68;;;6.43;;
1701;SDS011;848;48.354;10.064;2023-04-06T12:02:48;16.50;;;7.95;;
1701;SDS011;848;48.354;10.064;2023-04-06T12:05:17;13.60;;;7.20;;
1701;SDS011;848;48.354;10.064;2023-04-06T12:07:44;12.48;;;5.80;;
1701;SDS011;848;48.354;10.064;2023-04-06T12:10:11;11.73;;;6.97;;
1701;SDS011;848;48.354;10.064;2023-04-06T12:12:39;12.13;;;7.20;;
1701;SDS011;848;48.354;10.064;2023-04-06T12:15:09;11.23;;;6.25;;
1701;SDS011;848;48.354;10.064;2023-04-06T12:17:36;12.95;;;6.85;;
1701;SDS011;848;48.354;10.064;2023-04-06T12:20:03;12.85;;;6.72;;
1701;SDS011;848;48.354;10.064;2023-04-06T12:22:32;12.45;;;6.80;;
1701;SDS011;848;48.354;10.064;2023-04-06T12:24:59;13.73;;;6.80;;
1701;SDS011;848;48.354;10.064;2023-04-06T12:27:26;11.02;;;6.25;;
1701;SDS011;848;48.354;10.064;2023-04-06T12:29:53;12.55;;;6.78;;
1701;SDS011;848;48.354;10.064;2023-04-06T12:32:20;14.05;;;7.65;;
1701;SDS011;848;48.354;10.064;2023-04-06T12:34:47;13.25;;;8.10;;
1701;SDS011;848;48.354;10.064;2023-04-06T12:37:14;12.23;;;7.35;;
1701;SDS011;848;48.354;10.064;2023-04-06T12:39:43;13.25;;;8.02;;
1701;SDS011;848;48.354;10.064;2023-04-06T12:42:10;11.98;;;7.20;;
1701;SDS011;848;48.354;10.064;2023-04-06T12:44:37;14.52;;;8.15;;
1701;SDS011;848;48.354;10.064;2023-04-06T12:47:04;13.65;;;7.07;;
1701;SDS011;848;48.354;10.064;2023-04-06T12:49:32;11.00;;;6.03;;
1701;SDS011;848;48.354;10.064;2023-04-06T12:51:59;12.90;;;6.32;;
1701;SDS011;848;48.354;10.064;2023-04-06T12:54:27;12.45;;;6.60;;
1701;SDS011;848;48.354;10.064;2023-04-06T12:56:55;16.92;;;6.78;;
1701;SDS011;848;48.354;10.064;2023-04-06T12:59:26;15.25;;;6.35;;
1701;SDS011;848;48.354;10.064;2023-04-06T13:01:56;12.80;;;7.25;;
1701;SDS011;848;48.354;10.064;2023-04-06T13:04:23;12.27;;;6.70;;
1701;SDS011;848;48.354;10.064;2023-04-06T13:06:51;9.95;;;5.90;;
1701;SDS011;848;48.354;10.064;2023-04-06T13:09:18;9.88;;;5.68;;
1701;SDS011;848;48.354;10.064;2023-04-06T13:11:50;11.85;;;6.45;;
1701;SDS011;848;48.354;10.064;2023-04-06T13:14:18;12.85;;;6.57;;
1701;SDS011;848;48.354;10.064;2023-04-06T13:16:48;11.88;;;6.57;;
1701;SDS011;848;48.354;10.064;2023-04-06T13:19:16;12.85;;;6.53;;
1701;SDS011;848;48.354;10.064;2023-04-06T13:21:43;13.75;;;6.45;;
1701;SDS011;848;48.354;10.064;2023-04-06T13:24:12;12.70;;;6.90;;
1701;SDS011;848;48.354;10.064;2023-04-06T13:26:40;10.45;;;6.32;;
1701;SDS011;848;48.354;10.064;2023-04-06T13:29:07;12.02;;;6.43;;
1701;SDS011;848;48.354;10.064;2023-04-06T13:31:36;11.75;;;5.85;;
1701;SDS011;848;48.354;10.064;2023-04-06T13:34:03;11.38;;;6.80;;
1701;SDS011;848;48.354;10.064;2023-04-06T13:36:30;12.18;;;6.05;;
1701;SDS011;848;48.354;10.064;2023-04-06T13:38:58;12.07;;;6.72;;
1701;SDS011;848;48.354;10.064;2023-04-06T13:41:25;13.60;;;6.72;;
1701;SDS011;848;48.354;10.064;2023-04-06T13:43:54;10.98;;;5.75;;
1701;SDS011;848;48.354;10.064;2023-04-06T13:46:23;12.65;;;7.28;;
1701;SDS011;848;48.354;10.064;2023-04-06T13:48:51;13.70;;;6.60;;
1701;SDS011;848;48.354;10.064;2023-04-06T13:51:18;12.23;;;6.85;;
1701;SDS011;848;48.354;10.064;2023-04-06T13:53:45;11.75;;;6.40;;
1701;SDS011;848;48.354;10.064;2023-04-06T13:56:15;16.52;;;8.18;;
1701;SDS011;848;48.354;10.064;2023-04-06T13:58:42;12.43;;;6.43;;
1701;SDS011;848;48.354;10.064;2023-04-06T14:01:09;11.35;;;6.35;;
1701;SDS011;848;48.354;10.064;2023-04-06T14:03:36;13.18;;;7.30;;
1701;SDS011;848;48.354;10.064;2023-04-06T14:06:10;14.52;;;7.20;;
1701;SDS011;848;48.354;10.064;2023-04-06T14:08:38;12.55;;;6.97;;
1701;SDS011;848;48.354;10.064;2023-04-06T14:11:05;13.50;;;6.72;;
1701;SDS011;848;48.354;10.064;2023-04-06T14:13:37;11.93;;;7.15;;
1701;SDS011;848;48.354;10.064;2023-04-06T14:16:04;11.65;;;6.53;;
1701;SDS011;848;48.354;10.064;2023-04-06T14:18:31;12.32;;;6.70;;
1701;SDS011;848;48.354;10.064;2023-04-06T14:20:59;15.18;;;6.50;;
1701;SDS011;848;48.354;10.064;2023-04-06T14:23:28;12.18;;;6.47;;
1701;SDS011;848;48.354;10.064;2023-04-06T14:26:01;14.55;;;7.13;;
1701;SDS011;848;48.354;10.064;2023-04-06T14:28:30;13.68;;;7.93;;
1701;SDS011;848;48.354;10.064;2023-04-06T14:30:58;13.30;;;7.05;;
1701;SDS011;848;48.354;10.064;2023-04-06T14:33:26;15.30;;;7.15;;
1701;SDS011;848;48.354;10.064;2023-04-06T14:35:52;11.38;;;6.72;;
1701;SDS011;848;48.354;10.064;2023-04-06T14:38:20;13.20;;;8.18;;
1701;SDS011;848;48.354;10.064;2023-04-06T14:40:48;12.88;;;7.80;;
1701;SDS011;848;48.354;10.064;2023-04-06T14:43:15;12.35;;;6.43;;
1701;SDS011;848;48.354;10.064;2023-04-06T14:45:44;18.55;;;7.75;;
1701;SDS011;848;48.354;10.064;2023-04-06T14:48:11;14.68;;;8.48;;
1701;SDS011;848;48.354;10.064;2023-04-06T14:50:40;16.45;;;7.45;;
1701;SDS011;848;48.354;10.064;2023-04-06T14:53:11;14.93;;;8.13;;
1701;SDS011;848;48.354;10.064;2023-04-06T14:55:38;14.98;;;6.95;;
1701;SDS011;848;48.354;10.064;2023-04-06T14:58:08;11.20;;;6.50;;
1701;SDS011;848;48.354;10.064;2023-04-06T15:00:37;14.00;;;6.93;;
1701;SDS011;848;48.354;10.064;2023-04-06T15:03:04;15.88;;;7.72;;
1701;SDS011;848;48.354;10.064;2023-04-06T15:05:33;15.98;;;8.15;;